Hauptseite
METAR-TAF:

METAR-TAF

Flughäfen :

Flughafen Khartum

Khartum, Sudan

Breite: 15-36N, Länge: 032-33E, Höhe: 382 m

Beobachtung

Neuester Wetterbericht von vor 49 Minuten, um 10:30 UTC
Wind 9 kt aus Nord/Nordwest
Temperatur 31°C
Luftfeuchtigkeit 14%
Luftdruck 1011 hPa
Sichtweite 10 km oder mehr
keine Wolken unter 1500 m und keine Kumulonimbus oder Gewitterwolken

METAR: HSSS 221030Z 34009KT CAVOK 31/00 Q1011 NOSIG

Zeit: 14:19 (11:19 UTC)

Prognose

Neuester Wetterbericht von vor 6 Stunden und 19 Minuten, um 05:00 UTC
Gültige Prognose vom 22 um 06 UTC bis 23 um 12 UTC
Wind 8 kt aus Nord
Sichtweite 10 km oder mehr
keine Wolken unter 1500 m und keine Kumulonimbus oder Gewitterwolken
Zeitweise
vom 22 um 06 UTC bis 22 um 09 UTC
Sichtweite: 8000 m

TAF: HSSS 220500Z 2206/2312 36008KT CAVOK TEMPO 2206/2209 8000

Wetterbeobachtungen und Prognosen von mehr als 4000 Flughäfen (METAR und TAF Bericht).

Die verfügbaren Stationen werden durch gelbe und rote Markierungen auf der Karte dargestellt.

Führen Sie die Maus auf sie, um den Namen der Station zu sehen.

Darauf klicken, um die Beobachtung von Wetterbeobachtungen und Prognosen zu sehen.

Um die Karte zu ändern : klicken Sie auf den grünen Tasten mit einem schwarzen Kreuz Zum Vergrößern, auf den grünen Button mit einem Gedankenstrich zu verkleinern, oder auf die grünen Pfeile für benachbarte Karten.


METAR-TAF: